Delhaven Orchards

*Note: All times are displayed in the local standard time of the station location.
**Rain - Equipment is designed to accurately record liquid precipitation; under conditions when precipitation is not in liquid form, the data displayed may not properly reflect rainfall values.

Date Max Temp
(°C)
Min Temp
(°C)
Avg Temp
(°C)
Rain (mm) Avg RH (%)
Sun, Aug 18, 2019 26.9 18.9 23.3 14.4 97.2
Sat, Aug 17, 2019 28.2 17.7 23.8 1.8 94.4
Fri, Aug 16, 2019 25.4 14.8 20.1 0.0 93.7
Thu, Aug 15, 2019 25.1 14.6 20.2 1.0 95.9
Wed, Aug 14, 2019 27.9 15.7 20.8 0.0 89.3
Tue, Aug 13, 2019 27.1 18.3 22.5 3.6 95.2
Mon, Aug 12, 2019 25.9 18.4 23.2 0.2 94.3
DateTime Avg Temp (°C) Rain (mm) RH (%)
Mon, Aug 19, 2019 14:00 25.6 0.0 88.2
Mon, Aug 19, 2019 13:00 25.4 0.0 91.9
Mon, Aug 19, 2019 12:00 25.4 0.0 89.2
Mon, Aug 19, 2019 11:00 24.3 0.0 94.9
Mon, Aug 19, 2019 10:00 22.6 0.0 99.8
Mon, Aug 19, 2019 09:00 20.6 0.0 99.9
Mon, Aug 19, 2019 08:00 18.8 0.0 99.9
Mon, Aug 19, 2019 07:00 18.4 0.0 99.9
Mon, Aug 19, 2019 06:00 18.6 0.0 99.9
Mon, Aug 19, 2019 05:00 19.1 0.0 99.9
Mon, Aug 19, 2019 04:00 19.7 0.0 99.9
Mon, Aug 19, 2019 03:00 20.2 0.0 99.9
Mon, Aug 19, 2019 02:00 20.1 0.6 99.9
Mon, Aug 19, 2019 01:00 19.3 4.2 99.9
Mon, Aug 19, 2019 00:00 19.0 2.0 99.9
Sun, Aug 18, 2019 23:00 20.7 3.2 98.3
Sun, Aug 18, 2019 22:00 23.9 0.0 98.8
Sun, Aug 18, 2019 21:00 23.1 0.0 97.5
Sun, Aug 18, 2019 20:00 23.5 0.0 96.6
Sun, Aug 18, 2019 19:00 24.1 0.0 92.6
Sun, Aug 18, 2019 18:00 24.9 0.0 88.2
Sun, Aug 18, 2019 17:00 23.9 0.0 95.8
Sun, Aug 18, 2019 16:00 20.8 1.2 99.9
Sun, Aug 18, 2019 15:00 24.0 7.0 93.7
Sun, Aug 18, 2019 14:00 26.6 0.0 87.2
Sun, Aug 18, 2019 13:00 25.9 0.0 92.6
Sun, Aug 18, 2019 12:00 25.9 0.0 95.2
Sun, Aug 18, 2019 11:00 25.1 0.0 99.3
Sun, Aug 18, 2019 10:00 24.6 0.0 99.3
Sun, Aug 18, 2019 09:00 23.8 0.0 99.9
Sun, Aug 18, 2019 08:00 22.1 0.0 99.9
Sun, Aug 18, 2019 07:00 21.5 0.0 99.9
Sun, Aug 18, 2019 06:00 21.3 0.0 99.9
Sun, Aug 18, 2019 05:00 22.0 0.4 99.9
Sun, Aug 18, 2019 04:00 23.1 0.6 99.9
Sun, Aug 18, 2019 03:00 23.5 0.0 99.9
Sun, Aug 18, 2019 02:00 23.4 0.0 99.9
Sun, Aug 18, 2019 01:00 23.5 0.0 99.9
Sun, Aug 18, 2019 00:00 23.3 0.0 99.9
Sat, Aug 17, 2019 23:00 23.4 0.0 99.9
Sat, Aug 17, 2019 22:00 23.1 0.0 99.9
Sat, Aug 17, 2019 21:00 23.3 0.0 99.8
Sat, Aug 17, 2019 20:00 24.8 0.0 91.7
Sat, Aug 17, 2019 19:00 27.3 0.0 79.9
Sat, Aug 17, 2019 18:00 27.6 0.0 79.4
Sat, Aug 17, 2019 17:00 27.6 0.0 80.0
Sat, Aug 17, 2019 16:00 27.8 0.0 81.2
Sat, Aug 17, 2019 15:00 27.2 0.0 88.8


asterix Register now to access more data! asterix